Time;durP1;ratioP1;P1;durP2;ratioP2;P2;SDS_P1;SDS_P2;PMS_P1;PMS_P2;Temp;Humidity;BMP_temperature;BMP_pressure;BME280_temperature;BME280_humidity;BME280_pressure;Samples;Min_cycle;Max_cycle;Signal;HPM_P1;HPM_P2
2021/06/01 00:02:04;;;;;;;;;;;;;;;17.87;43.42;100563.91;1691581;83;20271;-77
2021/06/01 00:04:31;;;;;;;;;;;;;;;17.88;43.44;100557.96;1691838;85;20148;-77
2021/06/01 00:06:57;;;;;;;;;;;;;;;17.87;43.48;100556.30;1691681;85;20168;-77
2021/06/01 00:09:24;;;;;;;;;;;;;;;17.80;43.62;100561.68;1691710;85;20584;-77
2021/06/01 00:11:52;;;;;;;;;;;;;;;17.77;43.63;100563.46;1691669;85;20561;-76
2021/06/01 00:14:18;;;;;;;;;;;;;;;17.72;43.79;100557.27;1691975;83;20187;-76
2021/06/01 00:16:45;;;;;;;;;;;;;;;17.69;43.96;100556.30;1691667;82;20223;-77
2021/06/01 00:19:11;;;;;;;;;;;;;;;17.66;44.06;100553.98;1691764;82;20244;-77
2021/06/01 00:21:38;;;;;;;;;;;;;;;17.64;44.22;100558.78;1662924;86;20559;-78
2021/06/01 00:24:05;;;;;;;;;;;;;;;17.61;44.32;100559.18;1662756;86;20253;-76
2021/06/01 00:26:32;;;;;;;;;;;;;;;17.62;44.35;100560.01;1662591;86;20320;-76
2021/06/01 00:28:59;;;;;;;;;;;;;;;17.64;44.36;100553.37;1662398;86;20164;-76
2021/06/01 00:31:25;;;;;;;;;;;;;;;17.69;44.38;100563.08;1662571;86;20196;-77
2021/06/01 00:33:51;;;;;;;;;;;;;;;17.69;44.41;100553.59;1662872;86;20152;-77
2021/06/01 00:36:18;;;;;;;;;;;;;;;17.68;44.55;100553.80;1662388;86;20244;-77
2021/06/01 00:38:44;;;;;;;;;;;;;;;17.64;44.54;100548.47;1692352;83;20148;-77
2021/06/01 00:41:10;;;;;;;;;;;;;;;17.64;44.63;100549.30;1692055;83;20160;-77
2021/06/01 00:43:36;;;;;;;;;;;;;;;17.63;44.67;100544.10;1691892;85;20250;-77
2021/06/01 00:46:03;;;;;;;;;;;;;;;17.62;44.61;100551.89;1662259;86;20240;-77
2021/06/01 00:48:30;;;;;;;;;;;;;;;17.60;44.58;100543.97;1692830;82;20224;-77
2021/06/01 00:50:56;;;;;;;;;;;;;;;17.58;44.73;100543.88;1691710;83;20149;-77
2021/06/01 00:53:22;;;;;;;;;;;;;;;17.60;44.84;100535.84;1693018;85;20192;-78
2021/06/01 00:55:49;;;;;;;;;;;;;;;17.61;44.76;100548.34;1693025;85;20232;-78
2021/06/01 00:58:15;;;;;;;;;;;;;;;17.61;44.54;100542.92;1692018;83;20259;-78
2021/06/01 01:03:15;;;;;;;;;;;;;;;17.63;44.66;100535.97;1691919;85;20168;-77
2021/06/01 01:05:47;;;;;;;;;;;;;;;17.63;44.67;100538.16;1635340;87;20306;-78
2021/06/01 01:11:22;;;;;;;;;;;;;;;17.64;44.86;100530.34;1692280;83;20164;-78
2021/06/01 01:13:52;;;;;;;;;;;;;;;17.64;44.86;100534.41;1691581;85;20159;-77
2021/06/01 01:16:18;;;;;;;;;;;;;;;17.61;44.91;100536.16;1691620;83;20224;-77
2021/06/01 01:18:47;;;;;;;;;;;;;;;17.58;44.85;100533.04;1691532;85;20225;-77
2021/06/01 01:21:42;;;;;;;;;;;;;;;17.61;44.90;100528.55;1691479;85;20169;-77
2021/06/01 01:24:41;;;;;;;;;;;;;;;17.61;44.92;100529.38;1692781;84;20220;-78
2021/06/01 01:27:40;;;;;;;;;;;;;;;17.64;45.00;100530.86;1662434;86;20236;-77
2021/06/01 01:30:07;;;;;;;;;;;;;;;17.63;45.05;100519.20;1663774;86;20249;-76
2021/06/01 01:33:01;;;;;;;;;;;;;;;17.63;45.05;100527.84;1662502;86;20286;-76
2021/06/01 01:35:30;;;;;;;;;;;;;;;17.63;45.10;100525.14;1662656;86;20536;-77
2021/06/01 01:37:59;;;;;;;;;;;;;;;17.62;45.19;100535.14;1662398;85;20233;-76
2021/06/01 01:40:26;;;;;;;;;;;;;;;17.64;45.14;100541.70;1662694;86;20169;-77
2021/06/01 01:42:55;;;;;;;;;;;;;;;17.64;44.96;100538.47;1663109;86;20216;-77
2021/06/01 01:45:25;;;;;;;;;;;;;;;17.63;44.79;100543.58;1662862;86;20544;-77
2021/06/01 01:50:42;;;;;;;;;;;;;;;17.57;44.88;100525.41;1662828;86;20281;-77
2021/06/01 01:53:13;;;;;;;;;;;;;;;17.60;45.05;100531.78;1662701;86;20237;-77
2021/06/01 01:55:39;;;;;;;;;;;;;;;17.62;45.03;100529.72;1662412;86;20240;-77
2021/06/01 01:58:06;;;;;;;;;;;;;;;17.61;45.27;100528.03;1662248;86;20193;-77
2021/06/01 02:00:32;;;;;;;;;;;;;;;17.64;45.19;100527.64;1662723;86;20228;-77
2021/06/01 02:02:58;;;;;;;;;;;;;;;17.68;45.11;100534.84;1662478;86;20164;-77
2021/06/01 02:05:24;;;;;;;;;;;;;;;17.66;45.26;100524.19;1663069;86;20341;-78
2021/06/01 02:07:52;;;;;;;;;;;;;;;17.67;45.29;100536.72;1662653;86;20337;-77
2021/06/01 02:10:20;;;;;;;;;;;;;;;17.64;45.14;100534.41;1661910;86;20548;-77
2021/06/01 02:12:46;;;;;;;;;;;;;;;17.60;45.09;100530.95;1638866;86;20216;-77
2021/06/01 02:15:12;;;;;;;;;;;;;;;17.60;45.23;100522.83;1662865;86;20619;-77
2021/06/01 02:17:39;;;;;;;;;;;;;;;17.59;45.30;100534.70;1662535;86;20220;-77
2021/06/01 02:20:06;;;;;;;;;;;;;;;17.56;45.20;100533.74;1662671;86;20223;-77
2021/06/01 02:25:19;;;;;;;;;;;;;;;17.56;45.46;100531.03;1662460;86;20268;-77
2021/06/01 02:28:03;;;;;;;;;;;;;;;17.57;45.59;100526.76;1662831;86;20249;-77
2021/06/01 02:30:31;;;;;;;;;;;;;;;17.56;45.50;100529.16;1662502;86;20232;-75
2021/06/01 02:32:58;;;;;;;;;;;;;;;17.55;45.58;100530.72;1662635;86;20156;-75
2021/06/01 02:35:30;;;;;;;;;;;;;;;17.50;45.44;100523.20;1662572;86;20520;-76
2021/06/01 02:38:01;;;;;;;;;;;;;;;17.42;45.51;100522.85;1662525;86;20128;-77
2021/06/01 02:40:29;;;;;;;;;;;;;;;17.39;45.79;100527.83;1662590;86;20185;-76
2021/06/01 02:42:55;;;;;;;;;;;;;;;17.40;45.84;100521.40;1662660;86;20218;-75
2021/06/01 02:45:22;;;;;;;;;;;;;;;17.40;45.96;100534.41;1662598;86;20216;-76
2021/06/01 02:47:48;;;;;;;;;;;;;;;17.42;46.01;100527.44;1662516;86;20233;-76
2021/06/01 02:50:15;;;;;;;;;;;;;;;17.42;45.93;100517.95;1639693;86;20268;-77
2021/06/01 02:52:42;;;;;;;;;;;;;;;17.43;45.90;100519.63;1662537;86;20550;-77
2021/06/01 02:55:10;;;;;;;;;;;;;;;17.43;45.95;100514.20;1662880;86;20209;-77
2021/06/01 02:57:37;;;;;;;;;;;;;;;17.43;45.92;100515.56;1662844;86;20228;-76
2021/06/01 03:00:07;;;;;;;;;;;;;;;17.43;46.09;100515.03;1662574;86;20252;-77
2021/06/01 03:02:33;;;;;;;;;;;;;;;17.43;46.10;100519.63;1662918;86;20517;-76
2021/06/01 03:04:59;;;;;;;;;;;;;;;17.45;46.21;100525.69;1662716;86;20184;-77
2021/06/01 03:07:25;;;;;;;;;;;;;;;17.46;46.25;100523.29;1662706;86;20191;-76
2021/06/01 03:09:52;;;;;;;;;;;;;;;17.49;46.21;100516.13;1662662;86;20248;-76
2021/06/01 03:15:00;;;;;;;;;;;;;;;17.49;46.13;100522.89;1662607;86;20221;-76
2021/06/01 03:17:26;;;;;;;;;;;;;;;17.46;45.83;100522.77;1662765;86;20224;-76
2021/06/01 03:19:52;;;;;;;;;;;;;;;17.44;45.87;100523.99;1661673;86;20268;-76
2021/06/01 03:22:19;;;;;;;;;;;;;;;17.44;46.06;100523.50;1662442;86;20777;-76
2021/06/01 03:24:45;;;;;;;;;;;;;;;17.43;46.12;100512.33;1661890;86;20320;-76
2021/06/01 03:27:11;;;;;;;;;;;;;;;17.44;46.10;100502.33;1661495;86;20238;-76
2021/06/01 03:29:37;;;;;;;;;;;;;;;17.44;45.87;100513.16;1634584;87;20519;-77
2021/06/01 03:32:04;;;;;;;;;;;;;;;17.43;45.81;100510.97;1634219;87;20241;-77
2021/06/01 03:34:30;;;;;;;;;;;;;;;17.43;45.91;100515.03;1653439;86;20234;-77
2021/06/01 03:36:57;;;;;;;;;;;;;;;17.42;45.96;100517.44;1663469;85;20254;-77
2021/06/01 03:39:23;;;;;;;;;;;;;;;17.42;45.88;100511.19;1663544;84;20254;-78
2021/06/01 03:41:49;;;;;;;;;;;;;;;17.42;45.95;100507.13;1663382;84;20205;-78
2021/06/01 03:44:16;;;;;;;;;;;;;;;17.42;45.71;100512.55;1663145;85;20269;-78
2021/06/01 03:46:43;;;;;;;;;;;;;;;17.44;45.74;100513.16;1649228;85;20265;-75
2021/06/01 03:49:09;;;;;;;;;;;;;;;17.44;45.69;100505.91;1667339;84;20249;-76
2021/06/01 03:51:35;;;;;;;;;;;;;;;17.47;45.60;100508.70;1687699;85;20604;-78
2021/06/01 03:54:01;;;;;;;;;;;;;;;17.48;45.56;100500.89;1688521;83;20256;-78
2021/06/01 03:56:27;;;;;;;;;;;;;;;17.50;45.63;100501.54;1688749;84;20439;-76
2021/06/01 03:58:53;;;;;;;;;;;;;;;17.53;45.71;100509.23;1690368;82;20280;-78
2021/06/01 04:01:19;;;;;;;;;;;;;;;17.48;45.29;100504.43;1677469;84;20285;-78
2021/06/01 04:03:45;;;;;;;;;;;;;;;17.47;45.41;100503.29;1675585;84;20174;-78
2021/06/01 04:06:12;;;;;;;;;;;;;;;17.46;45.62;100507.05;1709751;84;20279;-78
2021/06/01 04:08:39;;;;;;;;;;;;;;;17.45;45.58;100509.44;1694522;82;20317;-75
2021/06/01 04:11:05;;;;;;;;;;;;;;;17.41;45.72;100507.65;1687354;82;20310;-78
2021/06/01 04:13:31;;;;;;;;;;;;;;;17.40;45.76;100509.21;1716747;82;20280;-79
2021/06/01 04:15:59;;;;;;;;;;;;;;;17.41;45.73;100513.06;1728282;82;20239;-78
2021/06/01 04:18:25;;;;;;;;;;;;;;;17.42;45.64;100519.31;1736585;82;20155;-78
2021/06/01 04:20:51;;;;;;;;;;;;;;;17.46;45.85;100512.45;1719932;82;20378;-77
2021/06/01 04:23:17;;;;;;;;;;;;;;;17.49;45.62;100513.42;1728027;82;20194;-77
2021/06/01 04:25:43;;;;;;;;;;;;;;;17.49;45.60;100502.59;1733615;82;20322;-78
2021/06/01 04:28:10;;;;;;;;;;;;;;;17.49;45.68;100505.30;1736069;82;20224;-78
2021/06/01 04:30:36;;;;;;;;;;;;;;;17.49;45.67;100524.25;1734973;82;20546;-77
2021/06/01 04:33:02;;;;;;;;;;;;;;;17.45;45.41;100509.44;1735414;81;20195;-77
2021/06/01 04:35:28;;;;;;;;;;;;;;;17.37;45.47;100513.14;1732009;82;20323;-77
2021/06/01 04:37:54;;;;;;;;;;;;;;;17.32;45.36;100514.80;1706054;84;20261;-77
2021/06/01 04:40:20;;;;;;;;;;;;;;;17.30;45.60;100512.78;1718786;82;20178;-78
2021/06/01 04:42:46;;;;;;;;;;;;;;;17.33;45.54;100516.45;1736385;82;20202;-77
2021/06/01 04:45:13;;;;;;;;;;;;;;;17.33;45.60;100516.45;1735446;81;20249;-77
2021/06/01 04:47:40;;;;;;;;;;;;;;;17.36;45.74;100502.53;1733956;82;20294;-77
2021/06/01 04:50:07;;;;;;;;;;;;;;;17.41;45.57;100509.52;1714354;82;20260;-77
2021/06/01 04:52:33;;;;;;;;;;;;;;;17.36;45.21;100503.36;1733622;82;20206;-75
2021/06/01 04:55:01;;;;;;;;;;;;;;;17.34;45.41;100508.13;1734226;81;20251;-75
2021/06/01 04:57:27;;;;;;;;;;;;;;;17.35;45.47;100518.43;1734975;82;20274;-76
2021/06/01 04:59:53;;;;;;;;;;;;;;;17.34;45.51;100510.00;1734597;82;20386;-75
2021/06/01 05:02:19;;;;;;;;;;;;;;;17.37;45.49;100514.50;1716414;82;20288;-76
2021/06/01 05:04:45;;;;;;;;;;;;;;;17.40;45.34;100514.11;1727930;82;20212;-75
2021/06/01 05:07:12;;;;;;;;;;;;;;;17.39;45.28;100502.94;1723174;82;20258;-75
2021/06/01 05:09:39;;;;;;;;;;;;;;;17.41;45.20;100507.65;1723309;82;20551;-76
2021/06/01 05:12:07;;;;;;;;;;;;;;;17.45;45.39;100512.14;1721210;82;20262;-77
2021/06/01 05:14:33;;;;;;;;;;;;;;;17.48;45.49;100523.91;1690968;82;20879;-76
2021/06/01 05:17:01;;;;;;;;;;;;;;;17.49;45.28;100526.95;1722690;81;20181;-75
2021/06/01 05:19:28;;;;;;;;;;;;;;;17.49;45.32;100534.56;1726824;81;20610;-75
2021/06/01 05:21:54;;;;;;;;;;;;;;;17.49;45.15;100533.20;1726559;81;20560;-75
2021/06/01 05:24:20;;;;;;;;;;;;;;;17.55;45.05;100529.38;1723963;81;20206;-76
2021/06/01 05:26:46;;;;;;;;;;;;;;;17.57;44.84;100532.17;1726559;81;20171;-76
2021/06/01 05:29:12;;;;;;;;;;;;;;;17.63;44.85;100535.45;1727725;81;20297;-76
2021/06/01 05:34:13;;;;;;;;;;;;;;;17.79;44.81;100534.80;1724007;81;20221;-77
2021/06/01 05:36:42;;;;;;;;;;;;;;;17.85;44.26;100529.42;1731087;81;20387;-75
2021/06/01 05:39:11;;;;;;;;;;;;;;;17.92;43.71;100530.78;1724493;82;20328;-75
2021/06/01 05:41:38;;;;;;;;;;;;;;;17.97;43.62;100533.70;1723543;81;20607;-75
2021/06/01 05:44:05;;;;;;;;;;;;;;;18.04;43.61;100534.56;1733490;81;20226;-77
2021/06/01 05:46:31;;;;;;;;;;;;;;;18.10;43.45;100531.02;1704857;82;20191;-76
2021/06/01 05:48:57;;;;;;;;;;;;;;;18.16;43.49;100524.77;1726467;82;20322;-75
2021/06/01 05:51:36;;;;;;;;;;;;;;;18.22;42.96;100513.12;1690891;82;20181;-75
2021/06/01 05:53:55;;;;;;;;;;;;;;;18.24;42.65;100515.09;1726832;81;20249;-75
2021/06/01 05:56:21;;;;;;;;;;;;;;;18.24;42.50;100522.39;1728612;81;20158;-76
2021/06/01 05:58:47;;;;;;;;;;;;;;;18.25;42.23;100514.04;1727225;81;20187;-76
2021/06/01 06:01:13;;;;;;;;;;;;;;;18.30;42.36;100519.36;1726154;81;20293;-76
2021/06/01 06:03:39;;;;;;;;;;;;;;;18.34;42.35;100517.91;1725144;81;20151;-76
2021/06/01 06:06:11;;;;;;;;;;;;;;;18.37;42.38;100521.05;1729890;82;20219;-76
2021/06/01 06:08:33;;;;;;;;;;;;;;;18.39;42.00;100515.41;1725521;81;20211;-76
2021/06/01 06:10:59;;;;;;;;;;;;;;;18.39;41.66;100520.83;1722979;81;20206;-76
2021/06/01 06:13:25;;;;;;;;;;;;;;;18.38;41.89;100520.00;1734911;81;20230;-77
2021/06/01 06:15:51;;;;;;;;;;;;;;;18.38;41.92;100534.09;1728552;81;20185;-76
2021/06/01 06:18:33;;;;;;;;;;;;;;;18.35;42.06;100528.57;1729235;80;20271;-77
2021/06/01 06:21:01;;;;;;;;;;;;;;;18.34;41.60;100532.83;1726460;81;20446;-77
2021/06/01 06:23:31;;;;;;;;;;;;;;;18.31;41.71;100525.13;1731104;81;20318;-75
2021/06/01 06:25:59;;;;;;;;;;;;;;;18.26;41.50;100531.17;1731440;81;20187;-76
2021/06/01 06:28:25;;;;;;;;;;;;;;;18.22;41.50;100523.13;1724948;81;20621;-76
2021/06/01 06:30:51;;;;;;;;;;;;;;;18.19;41.79;100534.38;1733795;81;20332;-75
2021/06/01 06:33:18;;;;;;;;;;;;;;;18.18;41.62;100537.61;1731127;81;20159;-76
2021/06/01 06:35:44;;;;;;;;;;;;;;;18.13;41.88;100523.84;1729591;81;20269;-76
2021/06/01 06:38:10;;;;;;;;;;;;;;;18.07;41.97;100517.88;1730345;81;20242;-78
2021/06/01 06:40:36;;;;;;;;;;;;;;;18.05;41.85;100532.16;1732927;81;20191;-77
2021/06/01 06:43:02;;;;;;;;;;;;;;;18.02;42.16;100522.25;1734307;81;20239;-78
2021/06/01 06:45:31;;;;;;;;;;;;;;;17.99;42.15;100528.93;1693437;82;21209;-78
2021/06/01 06:48:06;;;;;;;;;;;;;;;18.00;42.09;100530.59;1693261;82;20231;-78
2021/06/01 06:50:34;;;;;;;;;;;;;;;18.02;42.38;100518.18;1693172;81;21477;-77
2021/06/01 06:53:01;;;;;;;;;;;;;;;18.04;42.34;100531.03;1684258;81;20266;-77
2021/06/01 06:55:27;;;;;;;;;;;;;;;18.04;42.10;100522.89;1689436;81;20875;-78
2021/06/01 06:57:53;;;;;;;;;;;;;;;18.04;42.01;100523.73;1669126;82;20617;-79
2021/06/01 07:00:23;;;;;;;;;;;;;;;18.05;41.92;100534.05;1679073;82;20180;-79
2021/06/01 07:02:49;;;;;;;;;;;;;;;18.03;41.84;100534.23;1684537;83;20583;-79
2021/06/01 07:05:16;;;;;;;;;;;;;;;18.01;42.05;100536.32;1682699;81;20168;-78
2021/06/01 07:07:43;;;;;;;;;;;;;;;18.02;42.13;100543.93;1686602;81;20264;-77
2021/06/01 07:10:13;;;;;;;;;;;;;;;18.03;41.81;100542.36;1689006;81;20239;-77
2021/06/01 07:12:43;;;;;;;;;;;;;;;18.01;41.50;100537.68;1688264;81;20160;-77
2021/06/01 07:15:28;;;;;;;;;;;;;;;18.00;41.81;100541.44;1688590;81;20228;-77
2021/06/01 07:17:55;;;;;;;;;;;;;;;17.98;42.14;100538.91;1687233;82;20673;-77
2021/06/01 07:20:22;;;;;;;;;;;;;;;17.99;42.11;100537.06;1683937;82;21161;-78
2021/06/01 07:22:48;;;;;;;;;;;;;;;18.00;42.22;100530.59;1681346;82;20191;-78
2021/06/01 07:25:14;;;;;;;;;;;;;;;17.96;41.96;100530.16;1686504;82;20686;-77
2021/06/01 07:27:40;;;;;;;;;;;;;;;17.97;42.03;100536.41;1684520;81;20170;-77
2021/06/01 07:30:09;;;;;;;;;;;;;;;17.95;41.78;100527.14;1662939;83;20238;-78
2021/06/01 07:32:35;;;;;;;;;;;;;;;17.98;41.98;100529.95;1656346;84;20587;-78
2021/06/01 07:35:02;;;;;;;;;;;;;;;18.02;41.92;100529.85;1659104;83;20211;-77
2021/06/01 07:37:28;;;;;;;;;;;;;;;17.99;41.52;100524.87;1686363;82;20728;-78
2021/06/01 07:39:54;;;;;;;;;;;;;;;17.99;41.50;100522.16;1680205;83;20239;-76
2021/06/01 07:42:21;;;;;;;;;;;;;;;17.97;41.31;100530.47;1679798;83;20190;-77
2021/06/01 07:44:47;;;;;;;;;;;;;;;17.96;41.29;100534.23;1682733;83;20199;-77
2021/06/01 07:47:13;;;;;;;;;;;;;;;17.97;41.52;100532.34;1681470;83;20243;-76
2021/06/01 07:49:38;;;;;;;;;;;;;;;17.99;41.43;100535.70;1684057;83;20192;-76
2021/06/01 07:52:05;;;;;;;;;;;;;;;17.99;41.28;100523.51;1681905;83;20172;-76
2021/06/01 07:54:32;;;;;;;;;;;;;;;17.97;41.60;100523.69;1684129;83;20377;-77
2021/06/01 07:57:00;;;;;;;;;;;;;;;17.97;41.32;100518.80;1685755;83;20312;-78
2021/06/01 07:59:27;;;;;;;;;;;;;;;17.96;41.47;100534.75;1683081;83;20255;-78
2021/06/01 08:02:07;;;;;;;;;;;;;;;17.96;41.01;100526.09;1662732;83;20180;-77
2021/06/01 08:04:35;;;;;;;;;;;;;;;17.95;41.14;100515.47;1654053;84;20175;-76
2021/06/01 08:07:08;;;;;;;;;;;;;;;17.95;41.29;100528.50;1682558;83;20211;-77
2021/06/01 08:09:35;;;;;;;;;;;;;;;18.01;40.87;100526.84;1681157;83;20285;-77
2021/06/01 08:12:05;;;;;;;;;;;;;;;18.04;40.66;100536.45;1680831;83;20204;-77
2021/06/01 08:14:36;;;;;;;;;;;;;;;18.05;40.50;100528.09;1677609;83;20624;-77
2021/06/01 08:17:12;;;;;;;;;;;;;;;18.07;40.70;100517.88;1681678;83;20215;-78
2021/06/01 08:20:09;;;;;;;;;;;;;;;18.10;40.89;100531.02;1657287;84;20313;-76
2021/06/01 08:24:51;;;;;;;;;;;;;;;18.17;41.23;100522.92;1680186;82;20247;-76
2021/06/01 08:27:17;;;;;;;;;;;;;;;18.22;41.17;100517.71;1675987;82;20604;-76
2021/06/01 08:29:43;;;;;;;;;;;;;;;18.28;41.01;100537.20;1674815;82;20283;-75
2021/06/01 08:32:09;;;;;;;;;;;;;;;18.29;40.51;100522.60;1690494;81;20222;-75
2021/06/01 08:34:36;;;;;;;;;;;;;;;18.29;40.82;100518.53;1666405;82;20671;-74
2021/06/01 08:37:02;;;;;;;;;;;;;;;18.32;41.02;100517.30;1682713;81;20158;-75
2021/06/01 08:39:34;;;;;;;;;;;;;;;18.35;40.98;100516.37;1640588;83;20296;-75
2021/06/01 08:42:03;;;;;;;;;;;;;;;18.39;40.71;100513.52;1654795;83;20250;-77
2021/06/01 08:44:30;;;;;;;;;;;;;;;18.42;40.58;100523.14;1681156;82;20228;-77
2021/06/01 08:47:02;;;;;;;;;;;;;;;18.43;40.34;100531.58;1664524;82;20248;-77
2021/06/01 08:49:31;;;;;;;;;;;;;;;18.42;40.25;100536.70;1684592;81;20144;-76
2021/06/01 08:51:58;;;;;;;;;;;;;;;18.41;39.88;100530.44;1668428;82;20448;-77
2021/06/01 08:54:27;;;;;;;;;;;;;;;18.40;39.89;100521.17;1695026;81;20237;-76
2021/06/01 08:56:53;;;;;;;;;;;;;;;18.37;40.11;100520.22;1695518;81;20256;-76
2021/06/01 08:59:19;;;;;;;;;;;;;;;18.39;39.99;100536.58;1686297;81;20164;-77
2021/06/01 09:01:46;;;;;;;;;;;;;;;18.41;39.80;100524.19;1686455;81;20644;-77
2021/06/01 09:04:13;;;;;;;;;;;;;;;18.44;39.67;100527.81;1684336;82;20334;-75
2021/06/01 09:06:58;;;;;;;;;;;;;;;18.45;39.85;100524.09;1690337;81;20272;-76
2021/06/01 09:23:05;;;;;;;;;;;;;;;18.59;39.39;100529.00;1681448;82;21116;-76
2021/06/01 09:28:07;;;;;;;;;;;;;;;18.61;38.99;100515.52;1659855;83;20770;-76
2021/06/01 09:31:02;;;;;;;;;;;;;;;18.60;39.05;100519.28;1671697;82;20242;-77
2021/06/01 09:33:31;;;;;;;;;;;;;;;18.59;38.96;100517.62;1659085;82;20267;-78
2021/06/01 09:36:04;;;;;;;;;;;;;;;18.58;38.67;100526.80;1693931;81;20664;-80
2021/06/01 09:38:40;;;;;;;;;;;;;;;18.59;38.59;100519.50;1684023;82;20172;-79
2021/06/01 09:41:07;;;;;;;;;;;;;;;18.61;38.63;100518.23;1685982;81;20312;-78
2021/06/01 09:43:38;;;;;;;;;;;;;;;18.65;38.66;100509.16;1689252;81;20255;-77
2021/06/01 09:46:32;;;;;;;;;;;;;;;18.69;38.86;100515.34;1679647;81;20237;-77
2021/06/01 09:49:17;;;;;;;;;;;;;;;18.75;39.19;100509.59;1690973;81;20234;-78
2021/06/01 09:51:50;;;;;;;;;;;;;;;18.82;39.33;100516.38;1683417;82;20750;-77
2021/06/01 09:54:38;;;;;;;;;;;;;;;18.86;38.88;100517.11;1687083;82;20200;-78
2021/06/01 09:57:20;;;;;;;;;;;;;;;18.87;38.58;100513.34;1687070;82;20278;-77
2021/06/01 10:00:12;;;;;;;;;;;;;;;18.87;38.35;100502.48;1684129;82;20644;-77
2021/06/01 10:02:39;;;;;;;;;;;;;;;18.87;38.37;100510.63;1697073;81;20616;-77
2021/06/01 10:05:13;;;;;;;;;;;;;;;18.92;38.60;100511.34;1688513;81;20243;-77
2021/06/01 10:07:43;;;;;;;;;;;;;;;18.94;38.28;100516.03;1690940;82;20200;-77
2021/06/01 10:10:23;;;;;;;;;;;;;;;18.97;38.49;100507.47;1669413;83;20678;-77
2021/06/01 10:12:55;;;;;;;;;;;;;;;18.99;38.34;100505.39;1683767;82;20242;-78
2021/06/01 10:15:36;;;;;;;;;;;;;;;19.01;38.18;100508.19;1685086;81;20262;-77
2021/06/01 10:18:18;;;;;;;;;;;;;;;19.05;38.39;100502.34;1687207;82;20232;-78
2021/06/01 10:20:45;;;;;;;;;;;;;;;19.10;38.42;100503.38;1678539;82;20211;-78
2021/06/01 10:23:13;;;;;;;;;;;;;;;19.13;38.07;100507.55;1684475;81;20194;-77
2021/06/01 10:25:40;;;;;;;;;;;;;;;19.14;37.96;100496.47;1690157;81;20168;-77
2021/06/01 10:28:09;;;;;;;;;;;;;;;19.16;38.12;100497.08;1679924;83;20173;-77
2021/06/01 10:30:38;;;;;;;;;;;;;;;19.22;37.88;100504.92;1692528;81;20164;-78
2021/06/01 10:33:10;;;;;;;;;;;;;;;19.26;37.60;100487.16;1671127;83;20700;-78
2021/06/01 10:35:44;;;;;;;;;;;;;;;19.26;37.45;100493.41;1688657;82;20193;-79
2021/06/01 10:52:18;;;;;;;;;;;;;;;19.59;37.33;100495.16;1718969;81;20191;-76
2021/06/01 10:55:11;;;;;;;;;;;;;;;19.61;37.02;100476.77;1685971;83;20221;-77
2021/06/01 10:58:00;;;;;;;;;;;;;;;19.66;37.29;100480.19;1682858;82;20191;-79
2021/06/01 11:03:20;;;;;;;;;;;;;;;19.73;37.05;100477.75;1644838;84;20185;-77
2021/06/01 11:06:00;;;;;;;;;;;;;;;19.78;37.44;100478.45;1650255;82;20610;-78
2021/06/01 11:08:43;;;;;;;;;;;;;;;19.84;37.53;100465.88;1692347;82;20194;-78
2021/06/01 11:11:40;;;;;;;;;;;;;;;19.90;37.31;100467.73;1728605;81;20399;-80
2021/06/01 11:14:27;;;;;;;;;;;;;;;19.93;36.93;100472.19;1684794;81;20319;-81
2021/06/01 11:16:57;;;;;;;;;;;;;;;19.96;36.46;100458.69;1684946;82;20585;-77
2021/06/01 11:19:38;;;;;;;;;;;;;;;20.01;36.81;100471.09;1687642;82;20205;-78
2021/06/01 11:22:08;;;;;;;;;;;;;;;20.05;37.10;100461.98;1693678;82;20263;-79
2021/06/01 11:25:13;;;;;;;;;;;;;;;20.08;36.99;100465.62;1712459;83;20239;-77
2021/06/01 11:35:20;;;;;;;;;;;;;;;20.10;36.40;100460.27;1678000;82;20176;-79
2021/06/01 11:43:23;;;;;;;;;;;;;;;20.09;36.13;100454.52;1697333;81;20191;-78
2021/06/01 11:45:58;;;;;;;;;;;;;;;20.08;36.05;100455.58;1670716;83;20221;-80
2021/06/01 11:53:50;;;;;;;;;;;;;;;20.11;36.14;100459.73;1689152;81;20217;-77
2021/06/01 11:56:43;;;;;;;;;;;;;;;20.14;35.88;100457.41;1691944;81;20274;-79
2021/06/01 12:02:35;;;;;;;;;;;;;;;20.15;35.86;100461.79;1727185;81;20238;-79
2021/06/01 12:18:27;;;;;;;;;;;;;;;20.26;36.02;100458.37;1685569;82;20611;-80
2021/06/01 12:20:49;;;;;;;;;;;;;;;20.30;35.92;100467.42;1696381;81;21016;-80
2021/06/01 12:23:31;;;;;;;;;;;;;;;20.28;35.53;100457.61;1688326;83;20268;-79
2021/06/01 12:32:12;;;;;;;;;;;;;;;20.33;35.74;100451.50;1659422;83;20310;-79
2021/06/01 12:43:07;;;;;;;;;;;;;;;20.27;35.32;100463.28;1675010;84;20256;-79
2021/06/01 13:09:14;;;;;;;;;;;;;;;20.50;35.98;100440.39;1678016;82;20315;-80
2021/06/01 13:21:07;;;;;;;;;;;;;;;20.52;35.45;100448.32;1697259;82;20291;-79
2021/06/01 13:23:01;;;;;;;;;;;;;;;20.51;35.05;100449.38;1678280;82;20893;-78
2021/06/01 13:37:03;;;;;;;;;;;;;;;20.48;34.89;100444.37;1684002;82;20271;-80
2021/06/01 13:39:09;;;;;;;;;;;;;;;20.48;35.01;100443.02;1679632;81;20476;-77
2021/06/01 13:46:52;;;;;;;;;;;;;;;20.50;34.85;100446.37;1679854;84;20335;-78
2021/06/01 13:49:26;;;;;;;;;;;;;;;20.53;35.42;100455.45;1682031;82;20279;-80
2021/06/01 14:19:29;;;;;;;;;;;;;;;20.39;35.01;100456.56;1688528;83;20195;-79
2021/06/01 14:21:17;;;;;;;;;;;;;;;20.38;34.84;100462.55;1683005;82;20265;-80
2021/06/01 15:50:15;;;;;;;;;;;;;;;19.79;35.49;100480.65;1674826;84;20244;-77
2021/06/01 16:14:26;;;;;;;;;;;;;;;19.71;35.58;100483.95;1690017;84;20267;-81
2021/06/01 16:31:14;;;;;;;;;;;;;;;19.68;36.19;100476.22;1690262;84;20256;-79
2021/06/01 17:03:24;;;;;;;;;;;;;;;19.59;39.95;100486.17;1669649;83;20255;-78
2021/06/01 17:11:11;;;;;;;;;;;;;;;19.63;39.75;100486.91;1648836;85;20280;-78
2021/06/01 17:13:34;;;;;;;;;;;;;;;19.61;39.78;100488.99;1660560;85;20266;-78
2021/06/01 17:16:01;;;;;;;;;;;;;;;19.59;39.67;100482.09;1634690;85;20205;-79
2021/06/01 17:18:53;;;;;;;;;;;;;;;19.52;39.85;100488.91;1641300;86;20560;-81
2021/06/01 17:22:05;;;;;;;;;;;;;;;19.49;39.99;100486.64;1658898;86;20272;-78
2021/06/01 17:24:24;;;;;;;;;;;;;;;19.48;39.67;100483.09;1665642;84;20274;-78
2021/06/01 17:34:37;;;;;;;;;;;;;;;19.47;39.93;100481.93;1668807;84;20300;-77
2021/06/01 17:37:03;;;;;;;;;;;;;;;19.48;39.34;100486.30;1634107;87;20439;-77
2021/06/01 17:39:29;;;;;;;;;;;;;;;19.45;39.00;100475.36;1635037;87;20269;-77
2021/06/01 17:41:57;;;;;;;;;;;;;;;19.45;39.12;100482.69;1670551;84;20222;-77
2021/06/01 17:44:25;;;;;;;;;;;;;;;19.45;39.11;100482.69;1662044;85;20301;-78
2021/06/01 17:46:53;;;;;;;;;;;;;;;19.44;39.04;100480.99;1695912;83;20243;-79
2021/06/01 17:49:26;;;;;;;;;;;;;;;19.45;39.05;100477.25;1662948;84;20246;-79
2021/06/01 17:51:52;;;;;;;;;;;;;;;19.43;38.79;100474.73;1662985;85;20218;-79
2021/06/01 17:54:33;;;;;;;;;;;;;;;19.43;38.78;100469.30;1663410;85;20266;-79
2021/06/01 17:57:00;;;;;;;;;;;;;;;19.42;38.66;100469.52;1663123;86;20531;-79
2021/06/01 17:59:28;;;;;;;;;;;;;;;19.42;38.57;100473.07;1666521;85;20310;-79
2021/06/01 18:01:54;;;;;;;;;;;;;;;19.46;38.38;100473.48;1684628;85;20242;-78
2021/06/01 18:04:25;;;;;;;;;;;;;;;19.48;38.23;100483.59;1686765;85;20195;-78
2021/06/01 18:07:06;;;;;;;;;;;;;;;19.48;38.20;100480.38;1686065;85;20320;-80
2021/06/01 19:51:09;;;;;;;;;;;;;;;19.25;39.89;100526.19;1859452;77;20168;-79
2021/06/01 19:53:37;;;;;;;;;;;;;;;19.20;40.30;100522.76;1860793;77;20127;-78
2021/06/01 19:56:04;;;;;;;;;;;;;;;19.17;40.78;100521.02;1859964;77;20156;-78
2021/06/01 19:58:34;;;;;;;;;;;;;;;19.13;41.16;100517.89;1855084;75;20172;-79
2021/06/01 20:01:08;;;;;;;;;;;;;;;19.10;41.42;100518.30;1895970;75;20168;-79
2021/06/01 20:03:37;;;;;;;;;;;;;;;19.10;41.73;100517.47;1890532;75;20521;-78
2021/06/01 20:06:04;;;;;;;;;;;;;;;19.05;41.84;100525.42;1882593;76;20169;-78
2021/06/01 20:08:31;;;;;;;;;;;;;;;18.99;42.12;100523.04;1883045;76;20448;-78
2021/06/01 20:10:56;;;;;;;;;;;;;;;18.93;42.44;100519.27;1883042;76;20144;-77
2021/06/01 20:13:23;;;;;;;;;;;;;;;18.89;42.72;100515.83;1884816;76;20176;-78